CDT,Max TemperatureF,Mean TemperatureF,Min TemperatureF,Max Dew PointF,MeanDew PointF,Min DewpointF,Max Humidity, Mean Humidity, Min Humidity, Max Sea Level PressureIn, Mean Sea Level PressureIn, Min Sea Level PressureIn, Max VisibilityMiles, Mean VisibilityMiles, Min VisibilityMiles, Max Wind SpeedMPH, Mean Wind SpeedMPH, Max Gust SpeedMPH,PrecipitationIn, CloudCover, Events, WindDirDegrees
2011-10-1,,,,,,,,,,,,,,,,,,,,,,
2011-10-2,,,,,,,,,,,,,,,,,,,,,,
2011-10-3,,,,,,,,,,,,,,,,,,,,,,
2011-10-4,,,,,,,,,,,,,,,,,,,,,,
2011-10-5,,,,,,,,,,,,,,,,,,,,,,
2011-10-6,84,72,63,60,58,53,90,65,38,30.13,30.11,30.08,10,10,10,10,6,16,0.00,0,,35
2011-10-7,84,73,62,59,57,55,80,55,41,30.20,30.14,30.11,10,10,10,14,9,18,0.00,0,,57
2011-10-8,84,74,64,63,60,57,87,64,44,30.19,30.12,30.06,10,10,10,17,9,24,0.00,1,,71
2011-10-9,80,72,66,63,59,55,76,64,54,30.07,30.02,29.96,10,10,10,21,13,29,0.00,4,,56
2011-10-10,79,70,64,66,64,61,94,82,61,29.95,29.87,29.79,10,10,6,18,12,25,0.03,6,Rain,16
2011-10-11,75,70,66,66,65,63,94,85,73,29.87,29.80,29.75,10,9,2,13,9,,0.00,8,,7
2011-10-12,75,69,60,64,63,59,96,80,65,29.87,29.82,29.75,10,10,6,8,3,,0.00,6,,335
2011-10-13,84,71,60,68,61,53,100,75,39,29.82,29.74,29.66,10,9,2,9,3,16,0.04,2,Rain,286
2011-10-14,84,68,53,56,52,45,96,62,26,29.99,29.90,29.82,10,10,10,12,5,,0.00,0,,327
2011-10-15,89,70,52,61,52,42,93,63,20,30.08,30.03,29.99,10,10,10,6,3,,0.00,0,,24
2011-10-16,90,70,52,57,53,47,93,63,24,30.11,30.04,29.98,10,10,10,9,2,,0.00,0,,86
2011-10-17,89,70,51,64,56,50,96,69,28,29.99,29.90,29.79,10,10,10,9,2,,0.00,0,,106
2011-10-18,86,74,63,72,68,58,97,81,55,29.77,29.64,29.54,10,10,9,18,6,31,0.02,5,Rain,100
2011-10-19,64,54,46,52,40,33,81,58,37,29.96,29.74,29.58,10,10,10,24,16,31,0.00,3,,315
2011-10-20,66,52,39,38,36,31,86,60,29,30.10,30.02,29.96,10,10,10,15,4,23,0.00,0,,302
2011-10-21,68,51,36,38,35,33,93,68,27,30.20,30.15,30.11,10,10,10,10,3,,0.00,0,,334
2011-10-22,,,,,,,,,,,,,,,,,,,,,,
2011-10-23,,,,,,,,,,,,,,,,,,,,,,
2011-10-24,,,,,,,,,,,,,,,,,,,,,,
2011-10-25,81,66,50,52,50,44,93,60,28,30.12,30.10,30.09,10,10,10,9,3,,0.00,0,,200
2011-10-26,80,62,46,61,54,45,97,74,43,30.10,30.02,29.95,10,10,8,9,3,,0.00,2,,150
2011-10-27,82,68,55,61,58,55,100,78,41,29.98,29.91,29.84,10,8,2,10,3,,0.00,2,,225
2011-10-28,82,66,50,60,53,48,100,79,42,30.00,29.91,29.83,10,6,0,20,3,31,0.00,3,Fog,326
2011-10-29,68,57,42,48,37,27,80,55,23,30.12,30.03,29.98,10,10,10,23,16,31,0.00,3,,1
2011-10-30,69,54,41,40,33,29,82,51,25,30.20,30.15,30.12,10,10,10,15,7,18,0.00,0,,36
2011-10-31,73,55,37,44,36,33,89,51,24,30.16,30.13,30.06,10,10,10,10,6,21,0.00,0,,3